createdAt,value
2019-02-15T10:50:48.656Z,22.60
2019-02-15T10:53:43.291Z,24.95
2019-02-15T10:56:41.570Z,25.65
2019-02-15T10:59:39.971Z,24.47
2019-02-15T11:02:19.420Z,25.05
2019-02-15T11:05:01.985Z,25.23
2019-02-15T11:07:48.327Z,23.77
2019-02-15T11:10:34.913Z,22.67
2019-02-15T11:13:21.907Z,24.05
2019-02-15T11:16:08.986Z,22.15
2019-02-15T11:18:55.239Z,21.90
2019-02-15T11:21:42.118Z,22.15
2019-02-15T11:24:18.320Z,22.42
2019-02-15T11:27:01.861Z,23.22
2019-02-15T11:29:49.560Z,25.60
2019-02-15T11:32:35.768Z,20.43
2019-02-15T11:35:22.533Z,21.50
2019-02-15T11:38:11.442Z,19.77
2019-02-15T11:40:59.366Z,20.45
2019-02-15T11:43:49.007Z,19.57
2019-02-15T11:46:36.777Z,20.48
2019-02-15T11:49:11.328Z,18.05
2019-02-15T11:51:55.493Z,19.77
2019-02-15T11:54:24.371Z,19.35
2019-02-15T11:56:54.005Z,20.82
2019-02-15T11:59:21.799Z,16.97
2019-02-15T12:01:49.915Z,19.15
2019-02-15T12:04:18.200Z,20.57
2019-02-15T12:06:46.281Z,19.42
2019-02-15T12:09:14.411Z,13.58
2019-02-15T12:11:42.817Z,14.07
2019-02-15T12:14:12.841Z,14.40
2019-02-15T12:16:40.903Z,13.20
2019-02-15T12:19:09.033Z,14.18
2019-02-15T12:21:37.002Z,12.63
2019-02-15T12:24:05.313Z,15.78
2019-02-15T12:26:33.528Z,12.93
2019-02-15T12:29:01.662Z,13.25
2019-02-15T12:31:29.932Z,13.03
2019-02-15T12:33:58.069Z,12.25
2019-02-15T12:36:26.070Z,16.32
2019-02-15T12:38:54.049Z,15.75
2019-02-15T12:41:22.294Z,14.15
2019-02-15T12:43:51.376Z,13.45
2019-02-15T12:46:20.385Z,16.75
2019-02-15T12:48:48.848Z,15.40
2019-02-15T12:51:17.084Z,14.55
2019-02-15T12:53:46.941Z,15.93
2019-02-15T12:56:17.285Z,13.13
2019-02-15T12:58:50.361Z,14.55
2019-02-15T13:01:19.244Z,14.55
2019-02-15T13:03:47.715Z,15.30
2019-02-15T13:06:15.972Z,14.40
2019-02-15T13:08:44.193Z,15.45
2019-02-15T13:11:13.854Z,14.55
2019-02-15T13:13:42.785Z,15.55
2019-02-15T13:16:10.945Z,15.55
2019-02-15T13:18:39.914Z,15.53
2019-02-15T13:21:08.005Z,13.22
2019-02-15T13:23:36.679Z,13.13
2019-02-15T13:26:08.678Z,12.55
2019-02-15T13:28:34.937Z,12.65
2019-02-15T13:31:05.331Z,13.05
2019-02-15T13:33:35.066Z,12.43
2019-02-15T13:36:06.452Z,12.20
2019-02-15T13:38:34.295Z,11.18
2019-02-15T13:41:02.365Z,12.20
2019-02-15T13:43:30.139Z,9.35
2019-02-15T13:45:59.049Z,10.05
2019-02-15T13:48:27.234Z,10.75
2019-02-15T13:50:55.550Z,10.05
2019-02-15T13:53:23.915Z,10.05
2019-02-15T13:55:52.208Z,11.75
2019-02-15T13:58:23.442Z,10.03
2019-02-15T14:00:51.696Z,10.38
2019-02-15T14:03:20.310Z,13.85
2019-02-15T14:05:49.593Z,11.43
2019-02-15T14:08:18.275Z,11.78
2019-02-15T14:10:46.503Z,11.18
2019-02-15T14:13:14.998Z,11.68
2019-02-15T14:15:43.200Z,11.57
2019-02-15T14:18:12.134Z,10.10
2019-02-15T14:20:40.360Z,10.28
2019-02-15T14:23:08.748Z,9.80
2019-02-15T14:25:37.443Z,9.55
2019-02-15T14:28:05.692Z,11.18
2019-02-15T14:30:34.847Z,10.82
2019-02-15T14:33:03.203Z,11.63
2019-02-15T14:35:31.635Z,11.45
2019-02-15T14:38:00.526Z,13.08
2019-02-15T14:40:28.788Z,11.35
2019-02-15T14:42:57.116Z,12.15
2019-02-15T14:45:25.344Z,10.75
2019-02-15T14:47:55.233Z,10.78
2019-02-15T14:50:23.575Z,11.75
2019-02-15T14:52:54.415Z,10.23
2019-02-15T14:55:23.224Z,9.03
2019-02-15T14:57:53.567Z,9.70
2019-02-15T15:00:22.500Z,9.38
2019-02-15T15:02:50.701Z,11.25
2019-02-15T15:05:19.151Z,9.30
2019-02-15T15:07:47.682Z,7.67
2019-02-15T15:10:16.244Z,7.50
2019-02-15T15:12:44.746Z,6.70
2019-02-15T15:15:12.999Z,6.35
2019-02-15T15:17:41.545Z,7.17
2019-02-15T15:20:10.463Z,6.72
2019-02-15T15:22:39.227Z,8.28
2019-02-15T15:25:08.641Z,8.03
2019-02-15T15:27:36.817Z,6.90
2019-02-15T15:30:05.239Z,8.80
2019-02-15T15:32:34.550Z,8.93
2019-02-15T15:35:02.546Z,8.15
2019-02-15T15:37:30.859Z,8.30
2019-02-15T15:39:59.182Z,9.75
2019-02-15T15:42:27.302Z,10.13
2019-02-15T15:44:55.485Z,11.45
2019-02-15T15:47:25.583Z,8.15
2019-02-15T15:49:54.134Z,17.05
2019-02-15T15:52:22.441Z,11.15
2019-02-15T15:54:50.604Z,7.47
2019-02-15T15:57:18.991Z,9.80
2019-02-15T15:59:47.264Z,7.80
2019-02-15T16:02:15.500Z,12.85
2019-02-15T16:04:44.173Z,8.98
2019-02-15T16:07:12.490Z,13.90
2019-02-15T16:09:40.817Z,8.68
2019-02-15T16:12:09.000Z,8.85
2019-02-15T16:14:38.593Z,11.68
2019-02-15T16:17:07.675Z,11.53
2019-02-15T16:19:40.573Z,10.72
2019-02-15T16:22:07.122Z,10.43
2019-02-15T16:24:35.268Z,12.05
2019-02-15T16:27:03.436Z,11.05
2019-02-15T16:29:31.681Z,13.50
2019-02-15T16:32:02.459Z,16.48
2019-02-15T16:34:32.329Z,12.95
2019-02-15T16:37:00.500Z,12.20
2019-02-15T16:39:28.608Z,12.40
2019-02-15T16:41:57.788Z,19.17
2019-02-15T16:44:25.983Z,15.00
2019-02-15T16:46:55.303Z,15.10
2019-02-15T16:49:24.438Z,15.35
2019-02-15T16:51:54.642Z,15.35
2019-02-15T18:52:55.695Z,24.00
2019-02-15T18:55:24.647Z,25.00
2019-02-15T18:57:54.046Z,29.10
2019-02-15T19:00:23.248Z,30.70
2019-02-15T19:02:51.596Z,28.65
2019-02-15T19:05:20.381Z,23.65
2019-02-15T19:07:53.613Z,26.00
2019-02-15T19:10:35.980Z,26.70
2019-02-15T19:13:17.336Z,31.15
2019-02-15T19:15:59.958Z,31.20
2019-02-15T19:18:45.116Z,31.60
2019-02-15T19:21:29.234Z,26.50
2019-02-15T19:24:07.698Z,23.95
2019-02-15T19:26:47.621Z,24.20
2019-02-15T19:29:35.356Z,22.13
2019-02-15T19:32:22.731Z,25.32
2019-02-15T19:35:10.544Z,22.98
2019-02-15T19:37:51.530Z,23.92
2019-02-15T19:40:38.473Z,25.65
2019-02-15T19:43:18.698Z,25.40
2019-02-15T19:45:59.370Z,26.37
2019-02-15T19:48:41.711Z,25.62
2019-02-15T19:51:29.175Z,26.25
2019-02-15T19:54:05.699Z,27.35
2019-02-15T19:56:43.355Z,23.62
2019-02-15T19:59:17.447Z,26.60
2019-02-15T20:01:57.114Z,28.15
2019-02-15T20:04:30.306Z,28.10
2019-02-15T20:07:15.660Z,26.77
2019-02-15T20:09:59.850Z,25.90
2019-02-15T20:12:33.262Z,23.65
2019-02-15T20:15:11.893Z,26.20
2019-02-15T20:17:57.506Z,23.32
2019-02-15T20:20:27.901Z,26.50
2019-02-15T20:22:58.464Z,26.45
2019-02-15T20:25:27.908Z,25.55
2019-02-15T20:27:58.031Z,26.42
2019-02-15T20:30:26.604Z,26.87
2019-02-15T20:32:57.810Z,29.60
2019-02-15T20:35:27.952Z,25.20
2019-02-15T20:37:58.590Z,29.35
2019-02-15T20:40:28.905Z,24.90
2019-02-15T20:43:03.309Z,25.90
2019-02-15T20:45:42.509Z,28.32
2019-02-15T20:48:16.919Z,27.37
2019-02-15T20:50:46.512Z,29.07
2019-02-15T20:53:15.942Z,28.83
2019-02-15T20:55:46.692Z,30.30
2019-02-15T20:58:17.851Z,29.40
2019-02-15T21:00:49.145Z,30.52
2019-02-15T21:03:21.984Z,28.75
2019-02-15T21:05:56.212Z,30.12
2019-02-15T21:08:29.580Z,26.80
2019-02-15T21:11:15.348Z,26.70
2019-02-15T21:13:51.729Z,28.23
2019-02-15T21:16:22.213Z,30.60
2019-02-15T21:18:50.520Z,29.10
2019-02-15T21:21:19.890Z,29.45
2019-02-15T21:23:49.932Z,32.53
2019-02-15T21:26:18.543Z,32.48
2019-02-15T21:28:48.739Z,35.58
2019-02-15T21:31:30.317Z,27.80
2019-02-15T21:34:09.428Z,33.70
2019-02-15T21:36:40.876Z,31.07
2019-02-15T21:39:10.460Z,31.95
2019-02-15T21:41:45.023Z,29.33
2019-02-15T21:44:24.865Z,30.70
2019-02-15T21:47:04.903Z,30.02
2019-02-15T21:49:38.633Z,31.42
2019-02-15T21:52:17.863Z,30.20
2019-02-15T21:54:48.748Z,34.00
2019-02-15T21:57:26.076Z,32.15
2019-02-15T22:00:00.054Z,33.63
2019-02-15T22:02:37.761Z,33.03
2019-02-15T22:05:09.480Z,33.20
2019-02-15T22:07:43.686Z,34.77
2019-02-15T22:10:28.264Z,38.75
2019-02-15T22:13:01.330Z,36.57
2019-02-15T22:15:43.238Z,33.15
2019-02-15T22:18:14.938Z,31.00
2019-02-15T22:20:43.656Z,29.10
2019-02-15T22:23:14.046Z,30.72
2019-02-15T22:25:47.480Z,37.53
